createdAt,value
2019-03-02T00:00:04.271Z,38.2
2019-03-02T00:00:47.517Z,38.2
2019-03-02T00:01:37.841Z,38.2
2019-03-02T00:02:30.994Z,38.2
2019-03-02T00:03:17.974Z,38.1
2019-03-02T00:04:14.967Z,38.1
2019-03-02T00:04:57.729Z,38.1
2019-03-02T00:05:47.325Z,38.1
2019-03-02T00:06:41.409Z,38.1
2019-03-02T00:07:28.262Z,38.1
2019-03-02T00:08:17.710Z,38.1
2019-03-02T00:09:08.069Z,38.1
2019-03-02T00:09:58.107Z,38.1
2019-03-02T00:10:51.406Z,38.1
2019-03-02T00:11:37.986Z,38.1
2019-03-02T00:12:35.413Z,38.1
2019-03-02T00:13:18.068Z,38.1
2019-03-02T00:14:08.131Z,38.1
2019-03-02T00:15:00.031Z,38.1
2019-03-02T00:15:48.229Z,38.1
2019-03-02T00:16:45.684Z,38.1
2019-03-02T00:17:28.094Z,38.1
2019-03-02T00:18:18.698Z,38
2019-03-02T00:19:13.451Z,38
2019-03-02T00:19:59.121Z,38
2019-03-02T00:20:58.401Z,38.1
2019-03-02T00:21:39.500Z,38.1
2019-03-02T00:22:29.369Z,38
2019-03-02T00:23:24.608Z,38
2019-03-02T00:24:09.141Z,38
2019-03-02T00:25:03.731Z,38
2019-03-02T00:25:49.845Z,38
2019-03-02T00:26:46.917Z,38
2019-03-02T00:27:29.662Z,38
2019-03-02T00:28:19.960Z,38
2019-03-02T00:29:16.118Z,38
2019-03-02T00:29:59.805Z,38
2019-03-02T00:30:49.840Z,37.9
2019-03-02T00:31:39.928Z,37.9
2019-03-02T00:32:29.191Z,37.9
2019-03-02T00:33:26.218Z,37.9
2019-03-02T00:34:09.931Z,37.9
2019-03-02T00:35:00.031Z,37.9
2019-03-02T00:35:50.931Z,37.9
2019-03-02T00:36:40.305Z,37.9
2019-03-02T00:37:37.087Z,37.9
2019-03-02T00:38:20.117Z,37.9
2019-03-02T00:39:10.465Z,37.9
2019-03-02T00:40:01.194Z,37.9
2019-03-02T00:40:50.594Z,37.9
2019-03-02T00:41:46.882Z,37.9
2019-03-02T00:42:29.877Z,37.9
2019-03-02T00:43:19.918Z,37.9
2019-03-02T00:44:10.600Z,37.9
2019-03-02T00:45:00.539Z,37.9
2019-03-02T00:45:54.287Z,37.9
2019-03-02T00:46:40.792Z,37.9
2019-03-02T00:47:38.264Z,37.9
2019-03-02T00:48:21.444Z,37.9
2019-03-02T00:49:11.167Z,37.9
2019-03-02T00:50:07.534Z,37.9
2019-03-02T00:50:51.532Z,37.8
2019-03-02T00:51:49.582Z,37.8
2019-03-02T00:52:31.671Z,37.8
2019-03-02T00:53:21.469Z,37.8
2019-03-02T00:54:17.586Z,37.8
2019-03-02T00:55:03.732Z,37.8
2019-03-02T00:55:50.506Z,37.8
2019-03-02T00:56:47.056Z,37.8
2019-03-02T00:57:31.448Z,37.8
2019-03-02T00:58:21.341Z,37.8
2019-03-02T00:59:11.304Z,37.8
2019-03-02T01:00:02.215Z,37.8
2019-03-02T01:00:59.109Z,37.8
2019-03-02T01:01:41.768Z,37.8
2019-03-02T01:02:31.779Z,37.8
2019-03-02T01:03:22.643Z,37.8
2019-03-02T01:04:11.452Z,37.8
2019-03-02T01:05:07.846Z,37.8
2019-03-02T01:05:51.794Z,37.8
2019-03-02T01:06:41.542Z,37.8
2019-03-02T01:07:32.496Z,37.8
2019-03-02T01:08:22.527Z,37.8
2019-03-02T01:09:18.296Z,37.8
2019-03-02T01:10:25.123Z,37.8
2019-03-02T01:10:54.720Z,37.7
2019-03-02T01:11:41.923Z,37.7
2019-03-02T01:12:32.516Z,37.7
2019-03-02T01:13:28.358Z,37.7
2019-03-02T01:14:12.337Z,37.7
2019-03-02T01:15:09.257Z,37.7
2019-03-02T01:15:52.506Z,37.7
2019-03-02T01:16:42.526Z,37.7
2019-03-02T01:17:36.820Z,37.7
2019-03-02T01:18:25.000Z,37.7
2019-03-02T01:19:18.454Z,37.7
2019-03-02T01:20:03.079Z,37.7
2019-03-02T01:20:53.455Z,37.7
2019-03-02T01:21:47.840Z,37.6
2019-03-02T01:22:32.980Z,37.6
2019-03-02T01:23:30.795Z,37.7
2019-03-02T01:24:13.320Z,37.6
2019-03-02T01:25:03.381Z,37.6
2019-03-02T01:25:55.059Z,37.6
2019-03-02T01:26:43.214Z,37.6
2019-03-02T01:27:40.052Z,37.6
2019-03-02T01:28:23.633Z,37.6
2019-03-02T01:29:21.495Z,37.6
2019-03-02T01:30:04.067Z,37.6
2019-03-02T01:30:53.791Z,37.6
2019-03-02T01:31:46.772Z,37.6
2019-03-02T01:32:34.194Z,37.6
2019-03-02T01:33:31.015Z,37.6
2019-03-02T01:34:14.654Z,37.6
2019-03-02T01:35:03.707Z,37.6
2019-03-02T01:36:00.129Z,37.6
2019-03-02T01:36:45.752Z,37.6
2019-03-02T01:37:34.547Z,37.6
2019-03-02T01:38:23.887Z,37.6
2019-03-02T01:39:13.895Z,37.6
2019-03-02T01:40:10.786Z,37.6
2019-03-02T01:40:54.561Z,37.6
2019-03-02T01:41:43.999Z,37.6
2019-03-02T01:42:35.581Z,37.6
2019-03-02T01:43:25.271Z,37.5
2019-03-02T01:44:21.848Z,37.5
2019-03-02T01:45:05.592Z,37.5
2019-03-02T01:45:54.571Z,37.5
2019-03-02T01:46:46.901Z,37.5
2019-03-02T01:47:35.236Z,37.5
2019-03-02T01:48:32.986Z,37.5
2019-03-02T01:49:15.103Z,37.5
2019-03-02T01:50:05.139Z,37.5
2019-03-02T01:50:54.648Z,37.5
2019-03-02T01:51:44.983Z,37.5
2019-03-02T01:52:40.288Z,37.5
2019-03-02T01:53:25.145Z,37.5
2019-03-02T01:54:22.059Z,37.4
2019-03-02T01:55:05.818Z,37.4
2019-03-02T01:55:55.568Z,37.4
2019-03-02T01:56:48.185Z,37.4
2019-03-02T01:57:36.323Z,37.4
2019-03-02T01:58:32.901Z,37.4
2019-03-02T01:59:16.163Z,37.4
2019-03-02T02:00:05.940Z,37.4
2019-03-02T02:00:55.655Z,37.4
2019-03-02T02:01:46.543Z,37.4
2019-03-02T02:02:41.473Z,37.5
2019-03-02T02:03:26.200Z,37.5
2019-03-02T02:04:22.645Z,37.5
2019-03-02T02:05:06.506Z,37.6
2019-03-02T02:05:56.265Z,37.6
2019-03-02T02:06:49.538Z,37.7
2019-03-02T02:07:36.379Z,37.7
2019-03-02T02:08:32.445Z,37.8
2019-03-02T02:09:16.214Z,37.9
2019-03-02T02:10:06.272Z,37.9
2019-03-02T02:10:55.547Z,38
2019-03-02T02:11:49.730Z,38.1
2019-03-02T02:12:36.739Z,38.2
2019-03-02T02:13:26.807Z,38.3
2019-03-02T02:14:23.437Z,38.4
2019-03-02T02:15:06.677Z,38.6
2019-03-02T02:15:56.977Z,38.7
2019-03-02T02:16:48.594Z,38.8
2019-03-02T02:17:36.802Z,38.9
2019-03-02T02:18:33.518Z,39.1
2019-03-02T02:19:17.493Z,39.1
2019-03-02T02:20:06.996Z,39.3
2019-03-02T02:20:57.660Z,39.4
2019-03-02T02:21:47.149Z,39.5
2019-03-02T02:22:44.017Z,39.6
2019-03-02T02:23:27.595Z,39.7
2019-03-02T02:24:17.304Z,39.8
2019-03-02T02:25:08.062Z,39.8
2019-03-02T02:25:57.161Z,39.9
2019-03-02T02:26:51.967Z,39.9
2019-03-02T02:27:37.811Z,39.9
2019-03-02T02:28:33.721Z,40
2019-03-02T02:29:17.639Z,40.1
2019-03-02T02:30:08.108Z,40.1
2019-03-02T02:31:09.433Z,40.2
2019-03-02T02:31:52.483Z,40.2
2019-03-02T02:32:38.199Z,40.3
2019-03-02T02:33:28.297Z,40.3
2019-03-02T02:34:29.224Z,40.4
2019-03-02T02:35:09.399Z,40.4
2019-03-02T02:35:58.459Z,40.4
2019-03-02T02:36:52.943Z,40.4
2019-03-02T02:37:44.012Z,40.4
2019-03-02T02:38:28.328Z,40.4
2019-03-02T02:39:18.987Z,40.4
2019-03-02T02:40:18.541Z,40.5
2019-03-02T02:40:58.259Z,40.6
2019-03-02T02:41:48.339Z,40.6
2019-03-02T02:42:48.326Z,40.6
2019-03-02T02:43:28.485Z,40.6
2019-03-02T02:44:19.328Z,40.6
2019-03-02T02:45:18.638Z,40.7
2019-03-02T02:46:00.838Z,40.7
2019-03-02T02:46:49.531Z,40.7
2019-03-02T02:47:39.255Z,40.7
2019-03-02T02:48:37.673Z,40.7
2019-03-02T02:49:19.687Z,40.8
2019-03-02T02:50:09.499Z,40.8
2019-03-02T02:50:59.394Z,40.8
2019-03-02T02:51:56.133Z,40.8
2019-03-02T02:52:39.664Z,40.8
2019-03-02T02:53:29.128Z,40.8
2019-03-02T02:54:29.230Z,40.9
2019-03-02T02:55:10.416Z,40.9
2019-03-02T02:56:00.129Z,40.9
2019-03-02T02:56:58.573Z,40.9
2019-03-02T02:57:45.679Z,40.9
2019-03-02T02:58:30.311Z,40.9
2019-03-02T02:59:20.120Z,40.9
2019-03-02T03:00:19.631Z,40.9
2019-03-02T03:01:02.751Z,40.9
2019-03-02T03:01:49.830Z,40.9
2019-03-02T03:02:39.571Z,40.9
2019-03-02T03:03:30.382Z,40.9
2019-03-02T03:04:20.726Z,40.9
2019-03-02T03:08:01.245Z,41
2019-03-02T03:08:42.409Z,41.1
2019-03-02T03:09:32.102Z,41.1
2019-03-02T03:10:32.635Z,41.1
2019-03-02T03:11:12.999Z,41.1
2019-03-02T03:12:02.654Z,41.1
2019-03-02T03:12:56.649Z,41.1
2019-03-02T03:13:46.911Z,41.1
2019-03-02T03:14:32.249Z,41.1
2019-03-02T03:15:22.795Z,41.1
2019-03-02T03:16:22.746Z,41.1
2019-03-02T03:17:02.456Z,41.1
2019-03-02T03:17:51.959Z,41.1
2019-03-02T03:18:46.871Z,41.1
2019-03-02T03:19:37.312Z,41.1
2019-03-02T03:20:22.189Z,41.1
2019-03-02T03:21:13.257Z,41.2
2019-03-02T03:22:13.876Z,41.2
2019-03-02T03:22:53.344Z,41.2
2019-03-02T03:23:42.908Z,41.3
2019-03-02T03:24:42.509Z,41.3
2019-03-02T03:25:25.221Z,41.3
2019-03-02T03:26:12.799Z,41.3
2019-03-02T03:27:03.498Z,41.3
2019-03-02T03:27:58.299Z,41.3
2019-03-02T03:28:42.959Z,41.3
2019-03-02T03:29:33.090Z,41.3
2019-03-02T03:30:43.734Z,41.3
2019-03-02T03:31:36.482Z,41.3
2019-03-02T03:32:17.675Z,41.3
2019-03-02T03:33:05.896Z,41.2
2019-03-02T03:33:52.681Z,41.3
2019-03-02T03:34:38.066Z,41.3
2019-03-02T03:35:26.320Z,41.2
2019-03-02T03:36:13.523Z,41.2
2019-03-02T03:37:08.250Z,41.2
2019-03-02T03:37:57.976Z,41.2
2019-03-02T03:38:44.782Z,41.2
2019-03-02T03:39:34.553Z,41.2
2019-03-02T03:40:31.483Z,41.2
2019-03-02T03:41:15.187Z,41.2
2019-03-02T03:42:04.792Z,41.2
2019-03-02T03:43:05.154Z,41.2
2019-03-02T03:43:49.388Z,41.2
2019-03-02T03:44:34.545Z,41.2
2019-03-02T03:45:24.413Z,41.1
2019-03-02T03:46:25.365Z,41.1
2019-03-02T03:47:07.213Z,41.1
2019-03-02T03:47:55.656Z,41.1
2019-03-02T03:48:44.018Z,41.1
2019-03-02T03:49:40.723Z,41.1
2019-03-02T03:50:25.324Z,41.1
2019-03-02T03:51:15.318Z,41.1
2019-03-02T03:52:15.332Z,41.1
2019-03-02T03:52:56.823Z,41.1
2019-03-02T03:53:46.182Z,41.1
2019-03-02T03:54:36.095Z,41.1
2019-03-02T03:55:32.774Z,41.1
2019-03-02T03:56:15.682Z,41.1
2019-03-02T03:57:06.011Z,41.1
2019-03-02T03:58:07.329Z,41.1
2019-03-02T03:58:47.377Z,41.1
2019-03-02T03:59:35.886Z,41.1
2019-03-02T04:00:25.684Z,41.1
2019-03-02T04:01:24.467Z,41.1
2019-03-02T04:02:06.359Z,41.1
2019-03-02T04:02:55.621Z,41.1
2019-03-02T04:03:55.689Z,41.1
2019-03-02T04:04:36.849Z,41.1
2019-03-02T04:05:26.573Z,41.1
2019-03-02T04:06:16.664Z,41.1
2019-03-02T04:07:13.392Z,41.1
2019-03-02T04:07:57.760Z,41
2019-03-02T04:08:46.591Z,41
2019-03-02T04:09:36.595Z,41
2019-03-02T04:10:33.320Z,41
2019-03-02T04:11:16.524Z,41
2019-03-02T04:12:09.850Z,41
2019-03-02T04:13:08.069Z,41
2019-03-02T04:13:52.144Z,41
2019-03-02T04:14:36.493Z,41
2019-03-02T04:15:27.560Z,41
2019-03-02T04:16:27.922Z,41
2019-03-02T04:17:08.284Z,41
2019-03-02T04:17:57.507Z,41
2019-03-02T04:18:57.868Z,40.9
2019-03-02T04:19:40.866Z,40.9
2019-03-02T04:20:27.425Z,40.9
2019-03-02T04:21:17.961Z,40.9
2019-03-02T04:22:13.653Z,40.9
2019-03-02T04:22:57.901Z,40.9
2019-03-02T04:23:47.080Z,40.9
2019-03-02T04:24:46.032Z,40.9
2019-03-02T04:25:28.191Z,40.9
2019-03-02T04:26:17.765Z,40.9
2019-03-02T04:27:17.064Z,40.9
2019-03-02T04:28:00.788Z,40.9
2019-03-02T04:28:48.469Z,40.9
2019-03-02T04:29:38.637Z,40.9
2019-03-02T04:30:38.700Z,40.9
2019-03-02T04:31:18.375Z,40.9
2019-03-02T04:32:07.893Z,40.9
2019-03-02T04:33:07.801Z,40.9
2019-03-02T04:33:49.483Z,40.9
2019-03-02T04:34:38.317Z,40.9
2019-03-02T04:35:36.805Z,40.9
2019-03-02T04:36:18.780Z,40.9
2019-03-02T04:37:08.769Z,40.9
2019-03-02T04:38:07.429Z,40.9
2019-03-02T04:38:48.429Z,40.8
2019-03-02T04:39:38.949Z,40.8
2019-03-02T04:40:33.749Z,40.8
2019-03-02T04:41:19.053Z,40.8
2019-03-02T04:42:14.559Z,40.8
2019-03-02T04:42:58.594Z,40.8
2019-03-02T04:43:55.830Z,40.8
2019-03-02T04:44:38.701Z,40.8
2019-03-02T04:45:29.374Z,40.8
2019-03-02T04:46:22.019Z,40.8
2019-03-02T04:47:09.176Z,40.8
2019-03-02T04:48:07.606Z,40.8
2019-03-02T04:48:49.284Z,40.8
2019-03-02T04:49:38.573Z,40.8
2019-03-02T04:50:34.022Z,40.8
2019-03-02T04:51:18.969Z,40.8
2019-03-02T04:52:15.958Z,40.8
2019-03-02T04:52:59.858Z,40.8
2019-03-02T04:53:49.384Z,40.8
2019-03-02T04:54:43.953Z,40.8
2019-03-02T04:55:29.787Z,40.8
2019-03-02T04:56:26.636Z,40.8
2019-03-02T04:57:09.066Z,40.7
2019-03-02T04:57:59.118Z,40.7
2019-03-02T04:58:52.914Z,40.8
2019-03-02T04:59:40.330Z,40.7
2019-03-02T05:00:37.190Z,40.8
2019-03-02T05:01:19.930Z,40.7
2019-03-02T05:02:09.945Z,40.7
2019-03-02T05:03:01.420Z,40.7
2019-03-02T05:03:50.322Z,40.7
2019-03-02T05:04:40.670Z,40.7
2019-03-02T05:05:30.470Z,40.7
2019-03-02T05:06:24.329Z,40.7
2019-03-02T05:07:09.720Z,40.7
2019-03-02T05:08:07.567Z,40.7
2019-03-02T05:08:50.963Z,40.6
2019-03-02T05:09:40.467Z,40.7
2019-03-02T05:10:34.872Z,40.6
2019-03-02T05:11:20.334Z,40.6
2019-03-02T05:12:16.737Z,40.6
2019-03-02T05:13:00.505Z,40.6
2019-03-02T05:13:50.205Z,40.6
2019-03-02T05:14:45.997Z,40.6
2019-03-02T05:15:31.152Z,40.6
2019-03-02T05:16:21.472Z,40.6
2019-03-02T05:17:14.094Z,40.6
2019-03-02T05:18:00.519Z,40.6
2019-03-02T05:18:58.858Z,40.6
2019-03-02T05:19:41.181Z,40.6
2019-03-02T05:20:32.523Z,40.6
2019-03-02T05:21:21.299Z,40.6
2019-03-02T05:22:11.669Z,40.6
2019-03-02T05:23:01.581Z,40.6
2019-03-02T05:23:50.937Z,40.6
2019-03-02T05:24:48.330Z,40.6
2019-03-02T05:25:32.134Z,40.6
2019-03-02T05:26:21.921Z,40.6
2019-03-02T05:27:11.692Z,40.5
2019-03-02T05:28:08.838Z,40.6
2019-03-02T05:28:52.057Z,40.5
2019-03-02T05:29:42.238Z,40.5
2019-03-02T05:30:36.394Z,40.5
2019-03-02T05:31:21.981Z,40.5
2019-03-02T05:32:21.153Z,40.5
2019-03-02T05:33:02.622Z,40.5
2019-03-02T05:33:52.205Z,40.5
2019-03-02T05:34:46.267Z,40.5
2019-03-02T05:35:32.037Z,40.5
2019-03-02T05:36:30.091Z,40.5
2019-03-02T05:37:12.719Z,40.5
2019-03-02T05:38:02.526Z,40.4
2019-03-02T05:38:52.528Z,40.4
2019-03-02T05:39:43.129Z,40.4
2019-03-02T05:40:35.631Z,40.4
2019-03-02T05:41:22.963Z,40.4
2019-03-02T05:42:19.695Z,40.4
2019-03-02T05:43:03.080Z,40.4
2019-03-02T05:43:52.573Z,40.4
2019-03-02T05:44:45.033Z,40.4
2019-03-02T05:45:33.260Z,40.4
2019-03-02T05:46:31.390Z,40.4
2019-03-02T05:47:13.105Z,40.4
2019-03-02T05:48:11.126Z,40.4
2019-03-02T05:48:52.665Z,40.4
2019-03-02T05:49:43.823Z,40.4
2019-03-02T05:50:37.144Z,40.4
2019-03-02T05:51:23.662Z,40.4
2019-03-02T05:52:19.937Z,40.4
2019-03-02T05:53:03.219Z,40.4
2019-03-02T05:53:53.378Z,40.4
2019-03-02T05:54:47.822Z,40.4
2019-03-02T05:55:34.210Z,40.3
2019-03-02T05:56:30.015Z,40.3
2019-03-02T05:57:14.339Z,40.3
2019-03-02T05:58:04.681Z,40.3
2019-03-02T05:58:56.975Z,40.3
2019-03-02T05:59:43.702Z,40.3
2019-03-02T06:00:41.952Z,40.3
2019-03-02T06:01:24.349Z,40.3
2019-03-02T06:02:21.184Z,40.3
2019-03-02T06:03:03.919Z,40.3
2019-03-02T06:03:53.999Z,40.3
2019-03-02T06:05:51.809Z,40.3
2019-03-02T06:06:41.839Z,40.3
2019-03-02T06:07:31.867Z,40.3
2019-03-02T06:08:22.459Z,40.3
2019-03-02T06:09:19.076Z,40.3
2019-03-02T06:10:02.225Z,40.3
2019-03-02T06:10:52.740Z,40.3
2019-03-02T06:11:46.644Z,40.3
2019-03-02T06:12:32.539Z,40.3
2019-03-02T06:13:31.942Z,40.3
2019-03-02T06:14:13.041Z,40.3
2019-03-02T06:15:10.189Z,40.3
2019-03-02T06:15:52.432Z,40.2
2019-03-02T06:16:42.497Z,40.2
2019-03-02T06:17:38.401Z,40.2
2019-03-02T06:18:22.903Z,40.2
2019-03-02T06:19:12.689Z,40.2
2019-03-02T06:20:05.851Z,40.2
2019-03-02T06:20:53.164Z,40.2
2019-03-02T06:21:49.471Z,40.2
2019-03-02T06:22:32.931Z,40.2
2019-03-02T06:23:29.962Z,40.2
2019-03-02T06:24:15.370Z,40.1
2019-03-02T06:25:03.443Z,40.1
2019-03-02T06:26:02.641Z,40.1
2019-03-02T06:26:42.373Z,40.1
2019-03-02T06:27:33.001Z,40.1
2019-03-02T06:28:29.026Z,40.1
2019-03-02T06:29:13.923Z,40.1
2019-03-02T06:30:10.523Z,40.1
2019-03-02T06:30:53.545Z,40.1
2019-03-02T06:31:43.828Z,40.1
2019-03-02T06:32:39.028Z,40.1
2019-03-02T06:33:23.692Z,40.1
2019-03-02T06:34:20.666Z,40.1
2019-03-02T06:35:04.176Z,40
2019-03-02T06:35:53.850Z,40
2019-03-02T06:36:50.817Z,40
2019-03-02T06:37:34.270Z,40
2019-03-02T06:38:24.588Z,40
2019-03-02T06:39:14.875Z,40
2019-03-02T06:40:04.845Z,40
2019-03-02T06:41:00.389Z,40
2019-03-02T06:41:44.305Z,40
2019-03-02T06:42:34.872Z,40
2019-03-02T06:43:28.057Z,39.9
2019-03-02T06:44:14.139Z,39.9
2019-03-02T06:45:11.317Z,39.9
2019-03-02T06:45:54.826Z,39.9
2019-03-02T06:46:44.978Z,39.9
2019-03-02T06:47:38.817Z,39.9
2019-03-02T06:48:24.999Z,39.9
2019-03-02T06:49:21.407Z,39.9
2019-03-02T06:50:06.348Z,39.9
2019-03-02T06:50:54.905Z,39.9
2019-03-02T06:51:52.692Z,39.9
2019-03-02T06:52:35.043Z,39.9
2019-03-02T06:53:25.679Z,39.9
2019-03-02T06:54:19.427Z,39.9
2019-03-02T06:55:05.552Z,39.9
2019-03-02T06:56:03.811Z,39.9
2019-03-02T06:56:45.872Z,39.9
2019-03-02T06:57:35.917Z,39.9
2019-03-02T06:58:35.154Z,39.9
2019-03-02T06:59:15.190Z,39.9
2019-03-02T07:00:05.771Z,39.8
2019-03-02T07:00:55.987Z,39.8
2019-03-02T07:01:48.144Z,39.8
2019-03-02T07:02:40.616Z,39.8
2019-03-02T07:03:26.059Z,39.8
2019-03-02T07:05:52.567Z,39.8
2019-03-02T07:06:48.616Z,39.8
2019-03-02T07:07:31.826Z,39.8
2019-03-02T07:08:21.933Z,39.8
2019-03-02T07:09:16.264Z,39.8
2019-03-02T07:10:02.675Z,39.8
2019-03-02T07:10:59.123Z,39.8
2019-03-02T07:11:41.851Z,39.8
2019-03-02T07:12:31.936Z,39.8
2019-03-02T07:13:26.908Z,39.8
2019-03-02T07:14:12.893Z,39.8
2019-03-02T07:15:09.263Z,39.8
2019-03-02T07:15:52.683Z,39.8
2019-03-02T07:16:42.913Z,39.8
2019-03-02T07:17:36.473Z,39.8
2019-03-02T07:18:22.861Z,39.8
2019-03-02T07:19:19.673Z,39.8
2019-03-02T07:20:02.774Z,39.7
2019-03-02T07:20:53.100Z,39.8
2019-03-02T07:21:47.349Z,39.7
2019-03-02T07:22:33.138Z,39.7
2019-03-02T07:23:29.003Z,39.7
2019-03-02T07:24:12.987Z,39.7
2019-03-02T07:25:10.655Z,39.7
2019-03-02T07:25:52.849Z,39.7
2019-03-02T07:26:43.143Z,39.7
2019-03-02T07:27:35.450Z,39.6
2019-03-02T07:28:23.244Z,39.7
2019-03-02T07:29:20.655Z,39.6
2019-03-02T07:30:03.403Z,39.6
2019-03-02T07:30:53.762Z,39.6
2019-03-02T07:31:44.052Z,39.6
2019-03-02T07:32:33.847Z,39.6
2019-03-02T07:33:24.255Z,39.6
2019-03-02T07:34:14.249Z,39.6
2019-03-02T07:35:05.568Z,39.6
2019-03-02T07:36:01.855Z,39.6
2019-03-02T07:36:43.587Z,39.5
2019-03-02T07:37:35.985Z,39.4
2019-03-02T07:38:26.624Z,39.3
2019-03-02T07:39:14.682Z,39.3
2019-03-02T07:40:11.679Z,39.2
2019-03-02T07:40:54.427Z,39.2
2019-03-02T07:41:44.504Z,39.2
2019-03-02T07:42:39.975Z,39.2
2019-03-02T07:43:23.889Z,39.2
2019-03-02T07:44:15.004Z,39.2
2019-03-02T07:45:04.886Z,39.2
2019-03-02T07:45:54.804Z,39.2
2019-03-02T07:46:52.746Z,39.2
2019-03-02T07:47:34.670Z,39.2
2019-03-02T07:48:24.407Z,39.2
2019-03-02T07:49:19.889Z,39.2
2019-03-02T07:50:04.205Z,39.3
2019-03-02T07:50:54.702Z,39.3
2019-03-02T07:51:48.176Z,39.2
2019-03-02T07:52:35.278Z,39.2
2019-03-02T07:53:33.834Z,39.2
2019-03-02T07:54:15.098Z,39.2
2019-03-02T07:55:04.929Z,39.3
2019-03-02T07:56:02.954Z,39.3
2019-03-02T07:56:45.102Z,39.2
2019-03-02T07:57:34.770Z,39.3
2019-03-02T07:58:26.881Z,39.3
2019-03-02T07:59:15.733Z,39.3
2019-03-02T08:00:11.688Z,39.3
2019-03-02T08:00:55.508Z,39.3
2019-03-02T08:01:48.720Z,39.3
2019-03-02T08:02:35.893Z,39.3
2019-03-02T08:03:27.186Z,39.3
2019-03-02T08:04:18.201Z,39.3
2019-03-02T08:05:05.518Z,39.3
2019-03-02T08:05:57.355Z,39.3
2019-03-02T08:06:46.233Z,39.3
2019-03-02T08:07:44.710Z,39.3
2019-03-02T08:08:25.811Z,39.3
2019-03-02T08:09:16.735Z,39.3
2019-03-02T08:10:09.163Z,39.3
2019-03-02T08:10:56.820Z,39.3
2019-03-02T08:11:53.525Z,39.3
2019-03-02T08:12:35.907Z,39.3
2019-03-02T08:13:26.735Z,39.3
2019-03-02T08:14:20.463Z,39.3
2019-03-02T08:15:06.366Z,39.3
2019-03-02T08:16:06.711Z,39.3
2019-03-02T08:16:47.487Z,39.2
2019-03-02T08:17:37.047Z,39.2
2019-03-02T08:18:34.332Z,39.2
2019-03-02T08:19:17.404Z,38.2
2019-03-02T08:20:07.002Z,27.5
2019-03-02T08:21:05.565Z,29.9
2019-03-02T08:21:47.304Z,42.4
2019-03-02T08:22:37.907Z,46
2019-03-02T08:23:26.852Z,47.3
2019-03-02T08:24:17.480Z,47.3
2019-03-02T08:25:07.009Z,47.1
2019-03-02T08:25:57.306Z,46.7
2019-03-02T08:26:47.927Z,46.3
2019-03-02T08:27:41.526Z,45.9
2019-03-02T08:28:28.347Z,45.5
2019-03-02T08:29:24.243Z,45.2
2019-03-02T08:30:07.906Z,44.9
2019-03-02T08:30:57.441Z,44.8
2019-03-02T08:31:51.804Z,44.6
2019-03-02T08:32:37.545Z,43.2
2019-03-02T08:33:30.574Z,43.7
2019-03-02T08:34:18.441Z,50.5
2019-03-02T08:35:07.689Z,52.2
2019-03-02T08:35:58.011Z,51.6
2019-03-02T08:36:56.422Z,50.1
2019-03-02T08:37:38.419Z,49.9
2019-03-02T08:38:27.721Z,50.7
2019-03-02T08:40:08.913Z,52.9
2019-03-02T08:41:05.737Z,53.3
2019-03-02T08:41:48.153Z,53
2019-03-02T08:42:37.383Z,52.3
2019-03-02T08:43:29.108Z,51.6
2019-03-02T08:44:24.660Z,51
2019-03-02T08:45:08.441Z,51
2019-03-02T08:45:58.428Z,51.5
2019-03-02T08:46:49.046Z,52.7
2019-03-02T08:47:39.361Z,53.6
2019-03-02T08:48:29.166Z,54.7
2019-03-02T08:49:18.203Z,55.3
2019-03-02T08:50:09.268Z,55.5
2019-03-02T08:50:59.595Z,55.6
2019-03-02T08:51:49.613Z,55.6
2019-03-02T08:52:38.635Z,55.8
2019-03-02T08:53:29.233Z,56.1
2019-03-02T08:54:26.998Z,56.6
2019-03-02T08:55:09.072Z,57.3
2019-03-02T08:55:58.687Z,57.7
2019-03-02T08:56:54.260Z,58.1
2019-03-02T08:57:40.432Z,58.3
2019-03-02T08:58:30.502Z,58.5
2019-03-02T08:59:19.946Z,58.7
2019-03-02T09:00:10.217Z,58.8
2019-03-02T09:00:59.847Z,59
2019-03-02T09:01:57.325Z,59.2
2019-03-02T09:02:40.218Z,59.4
2019-03-02T09:03:39.192Z,59.6
2019-03-02T09:04:20.877Z,59.8
2019-03-02T09:05:10.340Z,59.9
2019-03-02T09:06:11.012Z,60.1
2019-03-02T09:06:49.417Z,60.4
2019-03-02T09:07:40.554Z,60.6
2019-03-02T09:08:30.565Z,60.4
2019-03-02T09:09:22.807Z,59.6
2019-03-02T09:10:15.934Z,58.6
2019-03-02T09:11:00.489Z,58.5
2019-03-02T09:11:51.852Z,59
2019-03-02T09:12:40.914Z,60.1
2019-03-02T09:13:37.530Z,60.9
2019-03-02T09:14:21.541Z,61.6
2019-03-02T09:15:11.070Z,61.9
2019-03-02T09:16:09.484Z,62.1
2019-03-02T09:16:51.482Z,62.1
2019-03-02T09:17:41.479Z,61.9
2019-03-02T09:18:50.491Z,61.3
2019-03-02T09:19:29.607Z,60.9
2019-03-02T09:20:13.941Z,61.1
2019-03-02T09:21:01.265Z,61.6
2019-03-02T09:21:56.632Z,62.1
2019-03-02T09:22:41.391Z,62.4
2019-03-02T09:23:38.128Z,62.3
2019-03-02T09:24:22.799Z,61.5
2019-03-02T09:25:10.794Z,61
2019-03-02T09:26:08.509Z,61.1
2019-03-02T09:26:51.115Z,61.7
2019-03-02T09:27:40.426Z,61.8
2019-03-02T09:28:30.477Z,61.2
2019-03-02T09:29:21.589Z,59.9
2019-03-02T09:30:12.096Z,58.3
2019-03-02T09:31:07.245Z,57.1
2019-03-02T09:31:52.366Z,56.1
2019-03-02T09:32:42.263Z,55.7
2019-03-02T09:33:34.753Z,55.4
2019-03-02T09:34:21.437Z,55.1
2019-03-02T09:35:19.706Z,54.8
2019-03-02T09:36:02.350Z,54.5
2019-03-02T09:36:52.623Z,54.8
2019-03-02T09:37:48.856Z,55.9
2019-03-02T09:38:33.102Z,57.2
2019-03-02T09:39:24.610Z,57.9
2019-03-02T09:40:18.797Z,58.4
2019-03-02T09:41:02.675Z,58.2
2019-03-02T09:41:52.950Z,58.3
2019-03-02T09:42:47.077Z,58.4
2019-03-02T09:44:22.912Z,58.6
2019-03-02T09:45:17.869Z,58.3
2019-03-02T09:46:02.447Z,57.4
2019-03-02T09:46:53.850Z,56.6
2019-03-02T09:47:54.530Z,55.9
2019-03-02T09:48:35.585Z,55.4
2019-03-02T09:49:23.560Z,55.3
2019-03-02T09:50:21.561Z,55.8
2019-03-02T09:51:03.577Z,56.3
2019-03-02T09:51:54.297Z,56.2
2019-03-02T09:52:46.275Z,55.7
2019-03-02T09:53:34.027Z,55.1
2019-03-02T09:54:24.096Z,54.5
2019-03-02T09:55:22.257Z,54.1
2019-03-02T09:56:05.009Z,54.2
2019-03-02T09:56:53.699Z,54.5
2019-03-02T09:57:53.574Z,55.1
2019-03-02T09:58:34.784Z,55.6
2019-03-02T09:59:23.037Z,55.6
2019-03-02T10:00:25.827Z,55.6
2019-03-02T10:01:10.066Z,56.1
2019-03-02T10:01:55.044Z,56.9
2019-03-02T10:02:51.732Z,57.6
2019-03-02T10:03:35.459Z,57.4
2019-03-02T10:04:24.516Z,57
2019-03-02T10:07:03.325Z,59.1
2019-03-02T10:07:44.226Z,60.6
2019-03-02T10:08:31.681Z,61.2
2019-03-02T10:09:27.758Z,61.6
2019-03-02T10:10:11.516Z,61.9
2019-03-02T10:11:09.151Z,62.1
2019-03-02T10:11:52.466Z,62.3
2019-03-02T10:12:47.129Z,62.4
2019-03-02T10:13:32.347Z,62.8
2019-03-02T10:14:30.863Z,62.9
2019-03-02T10:15:11.850Z,63.1
2019-03-02T10:16:11.025Z,62.8
2019-03-02T10:16:52.258Z,61.4
2019-03-02T10:17:45.378Z,60.3
2019-03-02T10:18:32.988Z,59.3
2019-03-02T10:19:30.243Z,59.3
2019-03-02T10:20:12.755Z,60.4
2019-03-02T10:21:02.845Z,61.5
2019-03-02T10:21:54.386Z,62.8
2019-03-02T10:22:42.949Z,63.7
2019-03-02T10:23:32.717Z,64.1
2019-03-02T10:24:24.330Z,64.3
2019-03-02T10:25:13.390Z,64.2
2019-03-02T10:26:10.976Z,64.1
2019-03-02T10:26:53.228Z,64.2
2019-03-02T10:27:43.020Z,64.4
2019-03-02T10:28:39.965Z,64
2019-03-02T10:29:23.422Z,62.9
2019-03-02T10:30:13.185Z,62.5
2019-03-02T10:31:10.860Z,62.2
2019-03-02T10:31:53.307Z,61.4
2019-03-02T10:32:43.402Z,60.9
2019-03-02T10:33:38.289Z,60.8
2019-03-02T10:34:24.103Z,61.4
2019-03-02T10:35:20.189Z,62.3
2019-03-02T10:36:03.666Z,62.7
2019-03-02T10:36:54.224Z,62.7
2019-03-02T10:37:47.682Z,62.4
2019-03-02T10:38:36.375Z,62.6
2019-03-02T10:39:24.384Z,62.6
2019-03-02T10:40:14.872Z,61.9
2019-03-02T10:41:03.979Z,61.2
2019-03-02T10:42:04.937Z,60.6
2019-03-02T10:42:45.533Z,60.5
2019-03-02T10:43:34.419Z,61.1
2019-03-02T10:44:27.861Z,62.1
2019-03-02T10:45:13.672Z,63.3
2019-03-02T10:46:04.589Z,63.9
2019-03-02T10:46:55.627Z,64.3
2019-03-02T10:47:45.579Z,64.4
2019-03-02T10:48:34.769Z,64.5
2019-03-02T10:49:25.080Z,64.4
2019-03-02T10:50:19.505Z,64.3
2019-03-02T10:51:08.774Z,63.6
2019-03-02T10:51:54.751Z,63.3
2019-03-02T10:52:51.670Z,63.1
2019-03-02T10:53:34.821Z,63.1
2019-03-02T10:54:25.157Z,62.9
2019-03-02T10:55:18.780Z,62.3
2019-03-02T10:56:07.823Z,61.4
2019-03-02T10:57:02.023Z,60.3
2019-03-02T10:57:45.139Z,59.3
2019-03-02T10:58:43.203Z,58.6
2019-03-02T10:59:25.521Z,58.1
2019-03-02T11:00:15.580Z,58.1
2019-03-02T11:01:13.366Z,57.9
2019-03-02T11:01:55.980Z,57.9
2019-03-02T11:02:46.027Z,57.9
2019-03-02T11:03:38.560Z,57.9
2019-03-02T11:04:25.880Z,57.9
2019-03-02T11:05:22.108Z,57.8
2019-03-02T11:06:56.691Z,57.8
2019-03-02T11:07:55.868Z,57.9
2019-03-02T11:08:36.448Z,58.3
2019-03-02T11:09:28.652Z,58.6
2019-03-02T11:10:22.462Z,59.4
2019-03-02T11:11:06.320Z,60
2019-03-02T11:11:55.435Z,60.4
2019-03-02T11:12:50.170Z,60.6
2019-03-02T11:13:36.631Z,60.2
2019-03-02T11:14:33.694Z,59.3
2019-03-02T11:15:16.920Z,58.1
2019-03-02T11:16:06.439Z,57.4
2019-03-02T11:16:57.315Z,56.8
2019-03-02T11:17:46.307Z,56.4